Date,TemperatureHighF,TemperatureAvgF,TemperatureLowF,DewpointHighF,DewpointAvgF,DewpointLowF,HumidityHigh,HumidityAvg,HumidityLow,PressureMaxIn,PressureMinIn,WindSpeedMaxMPH,WindSpeedAvgMPH,GustSpeedMaxMPH,PrecipitationSumIn
2013-1-1,53.1,50.7,43.5,52.5,48.7,33.8,98,93,65,28.91,28.70,6,0,6,1.21
2013-1-2,49.8,41.5,37.0,49.3,40.3,36.3,98,96,85,28.94,28.73,8,2,8,0.17
2013-1-3,45.5,36.5,28.2,36.9,31.4,23.2,98,83,56,29.09,28.88,9,1,9,0.04
2013-1-4,51.1,33.6,27.5,26.6,22.0,18.5,82,64,30,29.14,29.06,11,1,11,0.04
2013-1-5,50.0,34.6,27.1,37.5,24.7,19.2,91,68,39,29.14,29.00,5,0,5,0.04
2013-1-6,50.7,41.4,35.2,41.8,36.1,31.8,96,82,59,29.03,28.91,7,1,7,0.04
2013-1-7,57.6,40.8,30.2,34.3,28.9,25.0,93,66,35,29.14,29.00,12,2,12,0.04
2013-1-8,56.1,46.2,35.8,43.2,35.8,28.5,82,67,52,29.14,29.03,8,2,229,0.04
2013-1-9,64.4,56.3,48.2,57.0,49.9,40.7,91,79,72,29.17,29.06,6,1,6,0.04
2013-1-10,62.2,59.9,57.6,61.3,58.6,53.1,98,96,85,29.17,28.91,9,2,9,0.04
2013-1-11,66.9,63.4,61.3,64.5,62.6,60.8,98,97,89,29.00,28.88,8,0,8,0.12
2013-1-12,73.9,64.8,57.0,67.5,60.7,-25.1,98,88,64,28.94,28.82,6,1,6,0.12
2013-1-13,70.9,64.8,59.0,63.7,61.7,58.4,98,90,71,28.88,28.76,6,1,6,0.46
2013-1-14,63.3,53.0,44.8,62.8,52.5,44.2,98,98,98,28.94,28.82,7,1,7,1.21
2013-1-15,58.5,50.0,45.1,57.9,49.4,44.6,98,98,98,28.91,28.73,4,0,4,0.74
2013-1-16,63.5,55.9,49.3,62.9,55.4,48.7,98,98,98,28.82,28.70,5,0,5,0.54
2013-1-17,49.8,42.0,33.6,49.3,41.1,30.1,98,97,84,29.03,28.55,14,2,14,0.41
2013-1-18,54.5,39.9,30.2,33.8,28.7,27.0,91,67,37,29.26,29.00,10,2,10,0.12
2013-1-19,59.4,40.6,26.1,36.8,28.2,24.6,98,66,29,29.20,29.00,6,0,6,0.12
2013-1-20,63.3,43.9,27.7,40.9,32.4,26.2,97,68,35,29.00,28.88,8,1,8,0.12
2013-1-21,58.3,48.2,31.1,41.5,28.9,16.5,97,51,35,29.00,28.85,12,2,12,0.12
2013-1-22,46.8,34.5,25.9,18.9,15.1,11.7,57,46,32,29.09,28.94,10,2,10,0.00
2013-1-23,57.9,41.2,25.3,38.6,25.6,13.5,70,55,37,29.14,28.94,8,1,8,0.00
2013-1-24,57.7,47.5,33.1,43.2,29.8,12.2,80,53,29,29.09,28.91,12,2,12,0.00
2013-1-25,52.7,42.0,34.3,44.3,25.8,12.7,95,54,40,29.09,28.88,11,2,11,0.00
2013-1-26,61.0,44.2,36.3,44.2,32.7,22.3,98,70,26,29.06,28.88,8,1,8,0.00
2013-1-27,57.6,46.5,40.3,36.8,32.0,27.9,71,57,44,29.17,29.03,11,2,11,48.99
2013-1-28,59.4,49.0,42.8,50.9,40.7,27.8,98,74,54,29.14,29.00,6,1,6,0.00
2013-1-29,74.5,57.7,42.4,63.1,53.9,41.9,98,89,61,29.03,28.73,7,1,7,0.00
2013-1-30,68.2,57.3,39.4,66.4,56.0,32.1,98,96,69,28.73,28.38,12,2,12,2.36
2013-1-31,49.8,38.8,30.0,34.7,24.2,20.3,83,57,34,28.91,28.64,9,2,15,2.28
2013-2-1,44.1,35.9,26.1,30.2,19.1,4.1,73,52,29,29.12,28.88,12,1,12,2.28
2013-2-2,57.0,36.6,20.3,38.5,21.5,9.4,98,60,27,29.09,28.88,6,1,6,0.25
2013-2-3,58.8,41.0,30.0,42.1,30.3,20.1,98,72,27,28.94,28.76,10,1,10,0.00
2013-2-4,55.2,40.0,27.1,30.7,26.2,22.1,87,60,36,28.91,28.76,6,0,6,0.00
2013-2-5,64.8,49.4,37.6,50.9,41.8,28.0,98,76,57,28.82,28.73,6,1,6,0.00
2013-2-6,71.2,51.9,35.6,50.9,36.8,29.4,98,65,24,28.97,28.82,7,1,7,0.00
2013-2-7,48.6,45.7,43.3,45.9,38.8,32.0,98,78,57,28.91,28.70,13,1,13,51.76
2013-2-8,54.3,46.4,35.4,53.8,44.7,31.7,98,94,81,28.97,28.70,10,1,10,0.09
2013-2-9,66.9,45.5,29.5,34.7,30.2,27.4,98,61,25,29.06,28.91,7,1,7,51.85
2013-2-10,60.4,49.7,39.7,53.0,40.0,27.8,98,71,42,29.03,28.79,10,2,10,1.24
2013-2-11,56.8,52.2,46.2,56.3,51.7,45.7,98,98,98,28.91,28.79,6,0,7,0.83
2013-2-12,51.6,46.0,42.6,46.1,43.0,33.4,98,90,57,28.91,28.61,12,1,12,0.33
2013-2-13,52.0,44.5,34.7,49.1,41.9,33.5,98,91,75,28.76,28.52,10,2,10,0.05
2013-2-14,60.4,44.1,33.8,35.5,32.7,29.4,98,68,34,28.88,28.76,10,2,10,0.00
2013-2-15,66.2,46.7,29.1,45.6,32.8,27.9,98,65,27,28.91,28.76,9,1,9,0.00
2013-2-16,46.0,37.4,26.6,34.6,20.0,8.6,76,52,29,28.94,28.76,15,3,15,0.00
2013-2-17,49.8,33.8,19.8,19.0,14.3,11.1,73,48,24,29.06,28.88,10,1,10,0.00
2013-2-18,62.6,33.8,23.5,28.3,18.7,13.0,71,56,26,29.09,28.85,9,1,9,0.00
2013-2-19,59.9,46.3,36.5,48.5,30.0,15.1,97,58,28,28.94,28.76,10,2,10,0.37
2013-2-20,51.6,39.8,29.1,21.6,17.1,13.6,58,41,24,29.00,28.85,11,2,11,0.00
2013-2-21,68.0,49.5,29.5,45.9,22.6,13.1,96,37,20,28.94,28.70,8,2,8,0.58
2013-2-22,46.8,43.9,41.9,46.0,43.4,41.4,98,98,96,28.88,28.76,14,4,14,0.99
2013-2-23,57.2,47.6,41.4,54.6,46.6,40.8,98,96,89,28.79,28.61,7,1,7,0.95
2013-2-24,66.2,48.8,34.3,47.2,35.6,28.9,98,67,28,28.85,28.70,9,1,9,0.00
2013-2-25,50.5,44.9,40.6,41.7,34.2,27.8,98,67,51,28.79,28.58,16,3,16,0.13
2013-2-26,57.2,43.4,37.9,55.4,39.4,33.2,98,87,62,28.61,28.29,14,3,14,1.28
2013-2-27,63.3,48.6,37.4,35.3,32.3,29.4,77,55,34,28.70,28.58,10,2,10,0.00
2013-2-28,53.8,40.1,31.5,33.2,27.2,23.2,88,61,37,28.82,28.64,8,2,11,0.00
2013-3-1,46.6,36.0,33.8,31.9,24.8,22.8,88,64,42,28.82,28.70,10,2,10,0.00
2013-3-2,37.9,34.4,32.4,31.1,27.4,22.0,88,76,56,28.82,28.70,9,2,9,0.00
2013-3-3,42.8,33.9,25.3,29.0,19.0,13.1,88,56,38,28.85,28.76,11,3,11,3.93
2013-3-4,65.3,40.6,23.4,29.6,21.4,14.2,81,52,25,28.94,28.76,6,1,6,0.00
2013-3-16,81.1,64.8,45.5,43.7,36.7,27.3,77,40,20,28.82,28.67,12,2,12,1.41
2013-3-17,73.6,60.6,48.2,54.1,47.1,37.6,93,63,37,28.82,28.70,7,1,7,0.00
2013-3-18,71.4,58.3,48.7,63.9,55.9,47.8,98,92,70,28.76,28.58,23,1,23,5.88
2013-3-19,67.3,54.3,42.6,50.9,35.3,22.5,98,56,24,28.85,28.64,10,2,10,0.00
2013-3-20,61.9,48.7,41.4,24.7,19.5,15.0,45,32,22,28.91,28.70,12,2,12,0.00
2013-3-21,52.0,38.0,29.7,26.5,19.4,11.6,80,50,24,28.79,28.67,12,2,12,5.88
2013-3-22,58.8,44.5,35.8,37.0,24.0,15.0,69,44,37,28.85,28.70,6,1,6,0.00
2013-3-23,60.8,50.7,42.4,53.4,46.1,37.0,98,85,69,28.79,28.52,12,2,115,0.79
2013-3-24,60.4,50.6,40.6,56.0,47.2,27.1,98,89,56,28.55,28.29,13,3,13,1.08
2013-3-25,49.6,39.1,32.7,29.0,21.6,17.1,64,50,35,28.88,28.52,14,3,14,0.00
2013-3-26,41.5,35.5,30.9,26.0,23.1,19.4,77,61,47,29.06,28.82,12,3,12,7.75
2013-3-27,57.4,35.9,27.1,25.2,20.8,17.2,74,57,28,29.12,29.00,11,1,11,0.00
2013-3-28,66.9,47.3,29.8,33.7,26.1,22.8,80,49,23,29.12,29.00,13,1,13,0.00
2013-3-29,76.5,60.9,34.2,39.5,33.1,27.7,78,39,22,29.12,28.94,8,1,8,0.00
2013-3-30,79.0,58.7,44.4,55.2,43.2,35.1,98,60,31,28.97,28.82,6,1,6,8.33
2013-3-31,72.9,61.1,54.9,59.3,54.9,50.2,98,82,51,28.82,28.64,8,2,8,62.63
2013-4-1,75.9,59.2,52.9,58.4,51.7,33.4,98,82,23,28.85,28.64,10,1,10,0.08
2013-4-2,71.4,54.9,42.6,41.6,33.6,25.2,78,48,25,28.97,28.82,9,2,9,0.00
2013-4-3,63.7,50.5,42.3,46.5,32.9,25.0,98,54,32,28.97,28.85,9,2,9,0.38
2013-4-4,45.9,42.4,39.4,45.3,41.8,38.9,98,98,98,28.91,28.73,18,4,115,0.74
2013-4-5,67.3,50.7,39.6,47.5,38.5,28.1,98,70,24,28.85,28.70,15,2,15,0.13
2013-4-6,78.3,58.7,39.6,46.9,37.0,33.0,89,52,22,29.00,28.85,11,1,12,9.66
2013-4-7,81.5,60.9,41.9,51.0,44.1,38.6,90,58,30,29.00,28.82,10,1,10,9.66
2013-4-8,83.7,65.0,48.7,58.2,49.9,46.8,97,63,31,28.91,28.82,8,1,8,0.00
2013-4-9,87.3,66.2,51.8,61.5,53.3,48.8,98,69,31,29.00,28.82,6,1,7,9.66
2013-4-10,90.0,70.3,52.9,61.9,54.6,51.2,98,63,32,28.94,28.70,7,1,7,9.66
2013-4-11,79.7,67.7,54.1,66.3,59.0,52.7,98,75,53,28.76,28.47,6,1,6,10.65
2013-4-12,70.5,59.8,47.7,63.8,47.3,34.9,98,69,32,28.73,28.47,10,2,11,0.25
2013-4-13,78.8,60.3,43.3,45.1,38.4,33.2,84,50,23,28.88,28.73,11,1,11,10.90
2013-4-14,58.5,53.7,47.8,55.3,47.5,39.8,97,80,57,28.85,28.64,13,1,13,10.90
2013-4-15,78.3,63.9,55.9,61.2,57.3,0.0,100,82,49,28.91,28.70,6,1,6,11.15
2013-4-16,87.3,70.0,58.1,65.7,61.4,56.7,98,77,43,29.03,28.88,9,1,9,11.15
2013-4-17,91.0,72.8,61.7,66.9,62.9,60.4,98,74,38,29.00,28.88,6,1,6,10.90
2013-4-18,86.4,67.3,58.1,63.3,59.0,53.3,98,78,35,28.91,28.67,9,1,9,11.15
2013-4-19,70.9,57.6,41.5,66.9,53.7,37.8,98,87,71,28.85,28.58,8,2,8,10.90
2013-4-20,67.6,49.9,35.8,38.4,32.0,26.5,90,55,25,29.00,28.82,15,2,15,10.90
2013-4-21,74.3,48.2,38.7,43.1,35.0,31.9,78,63,26,29.12,29.00,10,1,10,11.65
2013-4-22,75.2,58.5,48.4,46.7,41.8,36.7,77,56,32,29.09,28.91,8,2,8,10.90
2013-4-23,78.8,60.8,45.3,48.5,43.1,37.5,80,55,31,29.00,28.85,8,1,8,10.90
2013-4-24,73.6,60.8,52.7,63.5,55.7,47.8,98,84,57,28.97,28.85,7,1,7,10.90
2013-4-25,72.3,55.2,43.0,53.6,38.1,26.8,98,60,23,29.09,28.94,13,2,13,10.90
2013-4-26,81.0,60.0,41.9,46.3,37.2,32.1,76,47,21,29.14,29.00,10,1,10,10.90
2013-4-27,76.1,63.2,58.8,58.0,49.9,45.7,93,62,49,29.09,28.88,8,1,8,10.90
2013-4-28,66.2,59.1,56.8,65.4,58.5,56.2,98,98,94,28.97,28.76,7,0,7,10.90
2013-4-29,79.5,63.6,55.2,67.1,56.3,49.2,98,80,40,28.85,28.70,5,0,5,10.90
2013-4-30,82.9,64.9,50.2,65.7,55.1,48.9,98,75,33,28.85,28.73,6,0,6,10.90
2013-5-1,68.7,64.0,60.4,61.1,57.5,53.0,98,80,63,28.97,28.85,9,2,9,13.39
2013-5-2,68.2,60.5,57.7,60.4,56.3,54.3,97,86,72,28.97,28.88,11,2,11,13.39
2013-5-3,68.7,62.3,59.4,57.7,56.6,54.1,93,82,64,28.91,28.70,115,3,115,10.90
2013-5-4,59.7,52.8,47.3,57.4,52.1,46.8,98,97,91,28.73,28.64,12,2,12,10.90
2013-5-5,71.6,54.0,46.8,57.8,49.0,46.0,98,86,47,28.67,28.55,5,0,5,0.12
2013-5-6,60.4,50.7,44.6,54.0,48.7,44.1,98,93,71,28.70,28.58,4,0,4,10.90
2013-5-7,69.4,56.0,48.0,56.8,50.8,47.5,98,84,56,28.79,28.64,6,0,6,10.90
2013-5-8,79.3,62.4,49.5,61.6,54.8,48.8,98,79,45,28.88,28.76,6,0,6,15.88
2013-5-9,86.7,67.9,53.1,64.9,56.0,50.5,98,71,33,28.94,28.82,5,0,5,10.90
2013-5-10,79.9,66.6,55.8,64.9,57.8,54.4,98,76,43,28.91,28.76,4,0,4,10.90
2013-5-11,79.7,63.0,58.3,66.8,60.1,57.0,98,91,62,28.79,28.70,5,0,5,16.00
2013-5-12,75.0,60.3,47.8,61.0,45.4,30.6,98,64,26,28.91,28.76,8,1,8,10.90
2013-5-13,74.1,56.1,39.2,41.9,36.2,31.0,87,53,24,29.03,28.91,8,1,8,16.00
2013-5-14,87.1,59.4,42.6,54.9,45.9,38.9,92,65,30,29.06,28.88,5,0,5,10.90
2013-5-15,93.0,71.9,54.5,61.4,54.6,48.8,94,61,27,29.00,28.82,6,0,6,10.90
2013-5-16,89.2,70.4,60.4,65.8,58.6,54.3,93,69,35,28.91,28.79,6,0,6,16.00
2013-5-17,87.4,67.1,57.9,68.8,59.1,51.4,96,79,31,28.91,28.82,7,0,7,16.46
2013-5-18,72.0,66.9,63.9,69.6,65.9,63.1,98,97,90,28.91,28.79,4,0,4,0.37
2013-5-19,79.9,67.8,60.8,73.0,66.2,60.2,98,95,70,28.97,28.76,11,0,11,1.62
2013-5-20,88.9,70.2,59.0,73.5,65.4,58.4,98,86,52,28.91,28.82,6,0,6,0.37
2013-5-21,93.6,75.3,62.4,75.1,67.6,61.8,98,80,45,28.85,28.70,6,0,6,0.00
2013-5-22,91.0,74.7,64.2,72.3,66.1,60.5,98,78,44,28.79,28.64,6,0,6,18.12
2013-5-23,89.6,73.4,63.1,68.6,61.5,52.1,98,71,38,28.82,28.70,6,0,6,0.37
2013-5-24,81.7,66.5,54.5,58.3,49.3,37.8,90,59,26,29.03,28.79,13,1,13,0.37
2013-5-25,85.8,65.1,48.0,49.0,44.6,40.0,79,51,26,29.09,29.00,6,0,6,0.37
2013-5-26,91.8,68.5,50.9,57.4,50.1,44.3,86,57,23,29.06,28.94,5,0,5,0.37
2013-5-27,92.5,70.8,55.9,64.9,55.7,51.3,91,64,29,29.03,28.91,6,0,6,18.12
2013-5-28,90.9,68.2,60.8,65.8,60.6,54.5,93,79,37,29.00,28.88,6,0,6,0.00
2013-5-29,89.6,72.6,60.3,69.8,61.9,56.1,94,72,41,29.00,28.88,8,1,8,18.12
2013-5-30,88.7,74.4,64.9,71.5,65.8,62.1,96,76,47,29.03,28.88,8,1,229,18.12
2013-5-31,91.2,75.8,66.0,70.4,65.1,61.1,96,72,40,28.97,28.85,10,1,11,0.00
2013-6-1,88.7,71.0,65.3,74.5,66.4,63.5,96,86,56,28.91,28.76,8,0,8,18.12
2013-6-2,91.2,74.7,67.8,77.1,69.9,63.5,97,86,57,28.82,28.64,6,0,6,0.62
2013-6-3,88.5,74.3,66.7,74.2,67.8,64.1,98,82,51,28.79,28.67,7,0,7,18.74
2013-6-4,91.6,75.5,63.5,70.0,65.6,61.8,95,74,42,28.82,28.76,5,0,5,18.74
2013-6-5,86.7,73.7,67.5,75.1,69.0,64.7,98,86,59,28.85,28.70,6,0,6,18.82
2013-6-6,84.2,72.9,66.9,72.3,68.7,66.3,98,88,64,28.73,28.55,4,0,4,18.82
2013-6-7,89.1,71.3,65.3,75.5,68.3,64.7,98,91,59,28.70,28.52,6,0,6,18.74
2013-6-8,86.9,72.7,65.5,74.0,67.4,64.9,98,85,56,28.88,28.67,4,0,4,18.74
2013-6-9,82.8,71.1,65.3,74.8,69.4,64.7,98,94,72,28.91,28.79,8,0,8,20.11
2013-6-10,81.5,72.0,67.1,75.5,69.9,65.9,98,94,78,28.85,28.76,4,0,4,20.36
2013-6-11,94.3,78.8,69.6,77.4,72.4,69.0,98,83,50,28.88,28.76,4,0,4,18.74
2013-6-12,99.0,80.2,70.7,80.1,73.8,70.1,98,83,48,28.88,28.76,4,0,229,18.74
2013-6-13,96.8,80.1,70.3,76.6,71.9,68.9,98,80,43,28.79,28.58,7,0,7,0.75
2013-6-14,87.8,74.3,64.4,70.5,63.2,57.0,98,72,37,28.79,28.64,7,1,8,21.11
2013-6-15,91.9,70.0,60.8,67.7,61.3,58.1,97,77,34,28.91,28.79,6,0,6,0.00
2013-6-16,91.9,75.1,61.3,74.5,67.4,60.5,98,79,51,28.94,28.82,6,0,6,0.50
2013-6-17,88.0,72.9,67.5,78.3,70.5,66.9,98,93,67,28.88,28.76,6,0,6,0.62
2013-6-18,87.4,72.8,67.3,77.5,70.4,66.7,98,93,67,28.79,28.64,4,0,4,0.16
2013-6-19,81.9,72.1,65.7,71.8,68.0,65.1,98,88,66,28.88,28.70,6,1,6,22.39
2013-6-20,89.6,74.1,64.6,71.2,66.3,63.1,98,80,43,29.00,28.88,8,1,8,22.39
2013-6-21,90.3,70.7,63.7,70.2,65.2,60.0,98,85,40,29.06,28.94,6,0,6,22.39
2013-6-22,91.0,74.6,63.0,69.1,63.4,57.7,98,72,36,29.03,28.82,6,1,6,1.28
2013-6-23,94.1,74.6,64.6,77.5,68.4,63.7,98,82,52,29.00,28.88,5,0,5,22.39
2013-6-24,92.5,74.6,68.5,75.3,70.8,67.9,98,89,51,29.03,28.91,6,0,6,0.63
2013-6-25,89.8,74.4,67.3,77.3,70.9,64.9,98,90,59,29.00,28.82,6,0,6,0.45
2013-6-26,95.5,78.3,68.7,79.9,72.0,68.1,98,83,48,28.91,28.76,4,0,4,0.00
2013-6-27,83.1,74.2,71.1,75.2,72.0,70.2,98,93,74,28.82,28.70,4,0,4,0.09
2013-6-28,80.6,76.6,74.5,72.3,70.8,67.7,90,82,69,28.79,28.52,1,0,1,0.09
2013-6-29,94.8,79.1,69.1,75.3,71.0,64.0,97,79,40,28.58,28.50,4,0,4,23.56
2013-6-30,86.7,70.2,64.2,72.7,66.3,57.0,98,89,43,28.61,28.52,4,0,4,0.00
2013-7-1,85.3,73.6,67.5,75.1,69.5,65.8,98,88,66,28.73,28.58,6,0,6,0.16
2013-7-2,92.3,75.5,66.9,73.2,68.6,65.0,98,81,47,28.88,28.70,5,0,5,0.00
2013-7-3,72.7,70.0,66.2,71.5,69.0,65.3,98,97,91,28.97,28.85,5,0,5,1.12
2013-7-4,71.8,69.4,67.3,71.2,68.9,66.7,98,98,98,28.94,28.85,4,0,4,25.30
2013-7-5,80.8,71.2,67.5,73.9,69.7,66.9,98,95,77,28.97,28.88,6,0,6,0.08
2013-7-6,83.3,71.4,68.5,76.4,70.0,68.0,98,96,73,28.97,28.88,8,0,8,0.62
2013-7-7,79.5,71.8,69.8,75.5,70.6,69.2,98,96,82,28.97,28.88,3,0,3,0.13
2013-7-8,95.9,76.0,34.2,77.5,71.0,0.0,98,87,46,29.00,28.91,5,0,5,0.04
2013-7-9,90.9,76.8,70.2,79.5,73.5,69.6,98,90,62,29.00,28.88,14,0,14,26.21
2013-7-10,91.0,76.8,69.4,78.5,72.9,68.8,98,89,63,28.91,28.76,4,0,4,26.21
2013-7-11,85.6,74.7,69.3,75.7,71.6,68.7,98,91,68,28.79,28.70,3,0,3,0.00
2013-7-12,91.8,76.3,69.3,76.4,71.0,67.4,98,85,53,28.76,28.67,6,1,6,0.00
2013-7-13,75.6,69.6,66.4,71.8,68.2,65.8,98,95,86,28.88,28.73,6,0,6,0.00
2013-7-14,89.1,75.2,70.3,74.8,71.0,68.3,98,88,58,28.97,28.82,9,0,229,26.71
2013-7-15,91.0,76.5,70.2,73.2,70.7,66.7,98,84,48,29.09,28.97,9,1,9,0.12
2013-7-16,93.4,77.3,69.4,74.9,70.4,66.9,98,81,48,29.12,29.00,6,1,6,0.00
2013-7-17,97.7,77.2,66.6,75.7,70.5,66.0,98,83,42,29.09,28.94,57,0,57,0.00
2013-7-18,95.2,77.7,65.8,72.5,68.4,63.8,98,77,38,29.00,28.88,6,0,6,0.00
2013-7-19,97.0,77.6,68.5,77.2,71.3,67.8,98,83,43,28.94,28.76,3,0,4,0.00
2013-7-20,91.4,73.9,70.0,77.2,71.3,69.4,98,93,56,28.85,28.76,5,0,5,26.87
2013-7-21,96.3,76.0,69.1,77.0,71.3,67.9,98,88,42,28.85,28.73,5,0,5,0.00
2013-7-22,89.2,76.3,68.0,78.7,71.2,67.4,98,85,63,28.85,28.70,5,0,5,0.05
2013-7-23,80.1,72.2,68.2,74.3,69.7,67.5,98,92,76,28.82,28.67,4,0,4,27.08
2013-7-24,86.4,73.2,68.2,76.2,70.2,67.4,98,91,69,28.73,28.64,6,0,6,27.08
2013-7-25,92.5,77.2,68.4,71.9,67.3,60.4,98,76,35,28.82,28.64,6,1,6,0.00
2013-7-26,95.0,72.1,65.8,72.9,66.8,62.9,96,85,39,28.85,28.76,6,0,6,27.08
2013-7-27,83.1,75.0,69.4,73.0,69.6,66.4,97,84,62,28.82,28.70,4,0,4,0.00
2013-7-28,90.0,74.3,66.0,75.2,69.0,65.4,98,85,51,28.85,28.73,172,0,172,27.08
2013-7-29,87.4,73.5,64.2,69.0,62.7,54.1,95,72,34,28.97,28.82,5,0,5,27.08
2013-7-30,95.5,76.3,60.3,69.3,62.1,56.4,94,67,29,29.00,28.88,5,0,5,0.00
2013-7-31,78.6,72.5,69.1,77.2,70.7,68.4,98,94,85,28.97,28.76,4,0,6,28.62
2013-8-1,89.4,75.9,69.8,77.2,71.4,0.0,98,87,60,28.82,28.73,6,0,6,29.16
2013-8-2,93.7,76.6,66.9,74.2,67.8,61.8,98,78,40,28.85,28.76,5,0,6,29.16
2013-8-3,90.0,73.4,64.0,74.1,68.1,63.1,98,85,54,28.88,28.82,4,0,4,0.00
2013-8-4,90.5,78.0,71.6,74.2,71.0,68.5,95,80,54,28.88,28.76,6,0,6,0.00
2013-8-5,89.4,75.6,66.4,72.3,66.6,61.9,92,76,44,28.88,28.76,6,0,6,29.16
2013-8-6,86.7,76.4,68.4,74.6,70.6,66.4,96,83,65,28.85,28.76,4,0,4,29.16
2013-8-7,89.6,76.9,70.5,77.4,72.6,65.5,98,88,60,28.88,28.76,6,0,6,0.21
2013-8-8,91.0,75.9,70.5,79.5,73.2,69.9,98,92,59,28.88,28.79,6,0,6,0.00
2013-8-9,92.1,78.7,70.7,79.1,73.4,70.1,98,85,59,28.94,28.82,5,0,5,0.00
2013-8-10,94.8,79.1,69.6,79.3,72.7,69.0,98,83,51,28.97,28.88,6,0,6,29.53
2013-8-11,92.8,77.7,68.5,77.2,71.5,68.0,98,83,51,28.97,28.88,4,0,5,0.05
2013-8-12,92.7,78.3,70.3,78.9,72.5,69.7,98,84,57,28.94,28.82,5,0,5,0.03
2013-8-13,92.1,76.4,69.8,75.7,71.6,68.0,98,87,51,28.85,28.70,6,0,6,29.66
2013-8-14,80.1,71.8,68.9,72.0,69.8,65.8,98,94,70,28.82,28.70,5,0,6,29.66
2013-8-15,75.0,69.1,64.4,68.6,64.7,59.2,96,87,62,28.88,28.76,8,1,8,0.04
2013-8-16,67.1,64.6,62.1,63.9,62.2,0.0,98,92,80,28.91,28.82,8,2,8,29.70
2013-8-17,64.9,62.5,61.7,64.4,61.7,61.1,98,97,91,28.94,28.85,6,1,6,0.41
2013-8-18,75.9,69.9,64.9,72.3,68.4,64.4,98,95,84,29.00,28.88,7,0,7,1.17
2013-8-19,85.8,73.9,69.3,74.9,70.9,68.7,98,91,63,28.94,28.82,6,0,6,0.00
2013-8-20,82.0,74.2,70.2,74.6,71.8,69.6,98,92,75,29.00,28.88,6,0,6,0.00
2013-8-21,85.1,75.3,68.9,75.3,71.5,68.3,98,89,67,29.03,28.91,6,0,6,0.00
2013-8-22,90.7,76.4,68.2,75.8,69.5,65.3,98,82,46,29.00,28.85,4,0,4,1.95
2013-8-23,88.0,75.4,66.9,79.4,70.2,66.3,98,86,50,28.91,28.79,6,0,6,33.23
2013-8-24,83.8,74.3,69.1,72.8,69.6,65.2,98,86,65,29.03,28.82,8,1,8,0.00
2013-8-25,83.1,72.1,64.2,66.3,63.0,57.8,98,76,44,29.14,29.00,8,1,8,0.00
2013-8-26,82.0,69.8,58.1,65.0,60.6,0.0,100,76,46,29.12,28.94,7,0,7,0.00
2013-8-27,85.6,71.3,59.5,69.9,63.8,59.0,98,80,49,28.97,28.85,6,0,6,0.00
2013-8-28,88.3,76.0,66.6,72.4,68.3,64.6,97,79,47,28.91,28.79,5,0,5,0.00
2013-9-7,79.9,73.1,67.1,69.6,66.1,63.6,94,80,58,28.85,28.82,2,0,2,2.86
2013-9-8,87.4,74.1,62.8,73.7,67.3,62.2,98,82,51,28.85,28.76,6,0,6,0.00
2013-9-9,87.8,76.3,68.9,73.6,69.1,65.2,98,81,48,28.91,28.79,6,0,6,0.00
2013-9-10,87.6,74.0,66.4,72.8,68.4,65.8,98,85,52,29.03,28.88,7,1,7,0.00
2013-9-11,87.3,73.2,64.4,73.0,66.0,62.1,98,80,47,29.06,28.88,4,0,4,0.00
2013-9-12,86.9,73.6,63.0,72.7,65.9,61.9,98,79,47,28.94,28.73,6,0,6,0.00
2013-9-13,83.3,72.8,63.0,70.1,63.6,51.6,98,75,50,28.76,28.64,7,1,7,0.00
2013-9-14,77.5,68.4,56.5,57.9,53.0,50.2,85,60,41,28.85,28.70,7,1,7,0.00
2013-9-15,82.0,68.6,59.0,69.0,62.9,56.9,97,84,59,28.97,28.85,8,0,8,0.00
2013-9-16,84.7,72.2,63.7,73.0,63.6,56.0,98,78,40,29.00,28.88,5,0,5,0.00
2013-9-17,77.0,69.7,62.6,65.0,62.3,58.7,91,78,65,29.00,28.88,8,1,229,0.00
2013-9-18,76.8,68.5,63.1,63.1,60.4,57.7,94,76,59,29.03,28.91,8,1,8,0.00
2013-9-19,80.8,68.4,58.5,64.7,61.3,57.9,98,80,50,29.00,28.88,5,0,5,0.00
2013-9-20,83.1,70.6,60.4,70.5,64.0,59.9,98,82,52,28.91,28.70,6,0,6,0.00
2013-9-21,71.2,67.6,63.3,70.7,66.5,62.8,98,96,91,28.73,28.55,6,0,6,0.71
2013-9-22,75.7,64.3,55.9,64.8,59.7,55.4,98,86,57,28.67,28.58,5,0,57,0.00
2013-9-23,77.9,62.7,54.7,64.9,57.7,54.1,98,86,51,28.82,28.67,8,1,8,0.00
2013-9-24,67.5,66.2,63.9,65.1,64.5,63.0,98,94,91,28.79,28.70,5,0,5,0.04
2013-9-25,67.3,64.9,63.0,66.7,64.3,62.4,98,98,98,28.70,28.64,6,0,6,0.54
2013-9-26,74.1,66.1,61.2,64.8,62.4,60.6,98,89,68,28.82,28.67,6,0,6,0.00
2013-9-27,74.5,64.8,58.5,63.0,58.9,52.3,98,84,47,28.94,28.82,6,1,6,0.00
2013-9-28,72.9,62.5,54.7,60.7,55.4,49.9,98,80,46,29.00,28.88,2,0,2,0.00
2013-9-29,73.0,61.1,52.0,59.0,54.7,51.4,98,82,49,28.97,28.82,2,0,2,0.00
2013-9-30,73.2,62.0,53.8,61.1,57.1,53.2,98,86,58,28.91,28.79,1,0,1,0.00
2013-10-1,77.7,65.8,57.0,65.8,60.5,56.5,98,85,56,28.97,28.85,1,0,2,37.76
2013-10-2,79.3,67.2,57.2,68.1,61.0,56.5,98,83,49,28.97,28.88,2,0,2,0.00
2013-10-3,78.8,67.4,61.2,67.9,62.6,57.8,98,87,50,28.97,28.85,2,0,2,0.00
2013-10-4,81.5,68.7,59.2,68.3,62.4,58.6,98,83,50,29.00,28.88,0,0,0,0.00
2013-10-5,81.0,69.8,60.4,68.9,63.2,59.9,98,82,51,28.94,28.82,0,0,0,0.00
2013-10-6,80.6,65.0,61.3,71.7,63.3,60.8,98,95,63,28.85,28.64,2,0,2,0.87
2013-10-7,67.8,61.7,55.0,66.9,55.6,47.3,98,83,50,28.79,28.64,2,0,2,0.37
2013-10-8,72.3,61.7,52.9,60.6,54.7,48.9,91,79,62,28.94,28.76,2,0,2,0.00
2013-10-9,72.0,62.2,53.8,57.8,52.8,44.7,94,73,52,29.00,28.88,2,0,2,0.00
2013-10-10,75.0,60.7,54.0,61.8,56.4,53.4,98,87,55,28.94,28.82,3,0,3,39.00
2013-10-11,75.2,63.3,55.0,62.0,55.9,51.6,98,80,46,28.88,28.76,6,0,6,0.00
2013-10-12,73.2,58.0,54.1,59.4,55.6,52.9,98,92,55,28.91,28.79,4,0,4,0.00
2013-10-13,76.1,65.6,56.7,62.1,57.1,52.8,96,76,46,29.00,28.88,5,0,5,0.00
2013-10-14,73.8,64.7,58.3,64.7,59.2,56.9,98,83,61,29.00,28.88,7,1,7,0.00
2013-10-15,67.5,62.2,56.7,62.0,58.9,55.6,98,89,72,28.97,28.82,6,0,6,0.00
2013-10-16,73.4,63.2,54.0,63.3,58.9,53.4,98,87,62,28.88,28.76,5,0,5,0.00
2013-10-17,70.0,64.7,58.8,69.4,63.7,58.3,98,97,93,28.79,28.67,4,0,4,0.33
2013-10-18,66.6,57.7,49.6,58.6,52.2,47.2,98,84,53,28.88,28.73,8,0,8,0.00
2013-10-19,63.1,55.0,53.2,57.0,53.6,52.1,98,95,79,28.79,28.73,3,0,3,0.04
2013-10-20,62.2,52.0,42.6,52.9,43.3,35.0,98,76,39,28.88,28.79,6,0,6,39.37
2013-10-21,68.7,54.2,41.5,55.0,48.2,40.7,98,82,52,28.94,28.82,5,0,5,0.00
2013-10-22,56.7,56.0,55.9,54.8,54.5,54.2,95,94,93,28.85,28.76,0,0,0,0.00
2013-10-23,57.2,51.0,38.8,54.2,38.1,33.2,95,63,42,28.88,28.70,8,1,8,0.00
2013-10-24,61.5,46.6,34.5,43.7,36.8,32.9,96,72,39,29.00,28.88,6,0,6,0.00
2013-10-25,51.4,42.5,34.0,41.7,27.2,21.5,85,57,32,29.14,29.00,11,1,11,0.00
2013-10-26,59.9,42.9,29.5,36.3,30.8,25.2,89,65,35,29.09,28.94,6,0,6,0.00
2013-10-27,68.0,51.7,38.1,52.9,44.7,33.8,93,78,53,28.97,28.88,4,0,4,0.00
2013-10-28,62.2,56.4,50.9,58.7,54.9,50.1,98,95,84,29.06,28.88,3,0,3,0.08
2013-10-29,73.2,59.5,53.2,60.9,55.5,52.7,98,88,52,29.12,29.00,4,0,4,0.00
2013-10-30,73.6,61.8,53.4,62.0,55.7,52.9,98,83,52,29.09,28.94,4,0,4,0.00
2013-10-31,73.2,63.3,55.2,63.9,59.4,54.1,98,88,68,28.97,28.67,8,0,8,0.00
2013-11-1,72.5,64.6,34.2,65.7,61.1,0.0,98,90,51,28.67,28.52,4,0,4,0.50
2013-11-2,66.2,54.5,46.4,53.7,41.9,32.9,96,66,34,28.88,28.64,6,0,6,0.50
2013-11-3,60.1,48.2,40.5,42.8,36.4,31.6,91,66,36,29.06,28.85,7,1,7,0.50
2013-11-4,61.5,49.1,38.3,41.6,35.5,32.4,93,64,35,29.17,29.06,10,1,10,0.50
2013-11-5,63.0,52.2,44.6,40.8,33.8,30.0,62,50,35,29.20,29.06,9,2,9,0.50
2013-11-6,68.9,58.2,51.4,57.3,52.9,40.8,98,84,62,29.09,28.88,8,1,8,0.50
2013-11-7,60.3,53.7,37.8,59.7,46.6,28.8,98,79,38,29.03,28.82,10,1,10,0.50
2013-11-8,56.8,44.4,35.4,32.6,26.9,22.9,80,53,29,29.12,29.00,13,1,13,0.50
2013-11-9,59.5,46.4,34.3,40.3,33.6,27.8,84,63,35,29.12,29.00,6,0,6,0.50
2013-11-10,66.7,54.1,45.5,42.8,37.8,33.3,82,57,33,29.09,29.00,8,1,9,0.50
2013-11-11,64.9,50.3,37.0,35.7,30.9,28.3,73,50,27,29.09,28.94,6,0,6,0.50
2013-11-12,60.4,44.5,30.4,38.9,28.2,10.4,84,54,37,29.20,28.91,18,2,18,0.50
2013-11-13,47.1,34.1,23.9,16.5,13.0,10.3,60,43,27,29.32,29.17,10,1,10,0.50
2013-11-14,57.4,38.6,23.5,23.1,17.0,11.9,70,44,25,29.20,29.03,7,0,7,0.50
2013-11-15,53.8,46.1,35.6,48.0,38.0,19.3,96,74,49,29.09,28.88,6,1,6,0.50
2013-11-16,63.1,55.2,46.9,57.2,52.7,46.0,98,92,79,29.00,28.88,5,1,5,0.50
2013-11-17,68.0,62.9,58.8,67.4,61.9,56.4,98,97,91,28.94,28.70,7,0,7,0.50
2013-11-18,68.4,62.4,49.6,67.8,57.5,28.0,98,86,37,28.88,28.70,10,1,10,0.04
2013-11-19,59.2,48.0,37.8,30.2,26.8,23.1,62,44,31,28.94,28.82,11,2,11,0.04
2013-11-20,58.5,47.2,36.7,31.0,27.9,22.9,66,48,35,29.09,28.91,10,2,10,0.04
2013-11-21,64.0,53.4,48.6,48.1,41.4,30.8,87,64,47,29.14,29.03,12,2,12,40.24
2013-11-22,63.3,56.9,51.4,59.2,54.7,48.2,98,93,78,29.09,28.94,6,1,6,0.08
2013-11-23,59.5,50.9,37.2,59.0,43.1,18.0,98,77,44,29.03,28.94,12,2,12,0.05
2013-11-24,42.4,33.3,26.4,18.4,12.1,7.6,55,42,29,29.23,29.03,9,2,12,40.37
2013-11-25,44.8,36.5,26.1,30.6,15.4,8.1,74,43,30,29.17,28.91,10,2,10,0.04
2013-11-26,47.5,39.7,34.0,47.0,38.8,30.1,98,97,73,28.91,28.50,10,2,10,1.78
2013-11-27,41.9,33.0,23.5,41.4,24.6,12.8,98,73,46,29.03,28.50,13,3,13,0.17
2013-11-28,50.4,31.4,20.5,20.4,15.3,11.6,71,54,29,29.23,29.00,9,1,9,0.04
2013-11-29,57.4,37.9,22.8,25.2,19.9,16.6,80,52,25,29.26,29.17,6,1,6,0.04
2013-11-30,54.7,41.6,32.4,27.2,23.7,21.8,71,51,30,29.26,29.06,8,1,10,42.32
2013-12-1,60.4,44.6,35.6,37.4,29.5,22.9,78,56,36,29.09,28.79,5,0,5,0.04
2013-12-2,54.0,46.2,43.5,51.9,43.3,37.0,98,89,77,28.79,28.61,3,0,3,0.08
2013-12-3,58.6,54.0,48.0,58.1,53.5,47.5,98,98,97,28.70,28.58,3,0,3,0.08
2013-12-4,73.8,61.1,57.0,66.9,59.6,56.5,98,95,67,92.99,28.64,6,0,6,0.08
2013-12-5,72.7,67.0,64.8,70.1,66.2,64.2,98,97,86,28.88,28.76,4,0,4,1.07
2013-12-6,74.3,68.0,52.5,69.8,66.4,51.8,98,95,73,28.88,28.76,10,1,10,0.59
2013-12-7,52.3,41.9,38.5,51.8,39.6,35.8,98,92,74,29.09,28.88,9,2,9,0.09
2013-12-8,46.9,44.9,39.9,46.4,44.4,39.4,98,98,98,29.03,28.91,9,2,9,0.29
2013-12-9,51.1,46.3,42.3,50.4,45.8,41.7,98,98,98,28.94,28.76,115,0,115,1.41
2013-12-10,49.5,42.0,28.0,48.9,37.8,26.2,98,86,53,29.09,28.73,15,1,15,0.16
2013-12-11,56.8,38.6,24.3,31.6,26.8,22.9,98,67,31,29.17,29.06,6,1,6,0.00
2013-12-12,45.5,35.3,28.6,24.8,17.2,9.1,78,50,28,29.23,29.12,10,2,10,0.09
2013-12-13,57.6,40.2,23.4,25.2,17.8,9.9,67,42,25,29.14,28.91,6,0,6,0.09
2013-12-14,56.7,50.2,44.8,56.1,45.7,24.8,98,86,43,28.91,28.58,8,0,8,0.62
2013-12-15,50.7,38.9,30.7,50.2,36.1,26.9,98,90,72,28.97,28.64,11,2,11,0.09
2013-12-16,57.2,38.0,26.8,34.5,27.1,0.0,98,71,28,29.06,28.94,6,1,6,0.00
2013-12-17,63.7,46.2,31.1,35.9,30.3,25.4,86,58,30,29.00,28.88,8,1,8,0.00
2013-12-18,54.9,40.2,29.8,33.0,20.4,15.1,71,47,26,29.12,28.94,8,1,8,0.00
2013-12-19,64.2,42.5,26.1,29.3,22.7,0.0,79,50,24,29.12,28.94,6,0,6,0.00
2013-12-20,64.4,49.8,35.8,50.1,38.3,23.4,88,65,48,29.00,28.88,4,0,6,0.00
2013-12-21,68.7,60.2,51.3,66.6,58.5,49.0,98,94,87,28.88,28.70,9,1,9,0.00
2013-12-22,68.9,59.3,53.2,66.2,58.2,52.7,98,96,77,28.88,28.64,11,1,11,3.49
2013-12-23,53.2,45.4,33.8,52.7,42.7,27.9,98,90,73,29.06,28.82,12,2,12,0.08
2013-12-24,41.0,32.0,25.7,28.0,20.9,13.7,90,66,41,29.20,29.06,10,2,10,0.00
2013-12-25,48.4,32.4,20.1,24.9,18.9,12.9,86,59,36,29.20,29.06,7,1,7,0.00
2013-12-26,54.7,37.8,27.0,26.2,22.2,19.2,76,56,30,29.14,29.00,9,1,9,0.00
2013-12-27,54.3,37.6,27.0,30.5,25.7,0.0,84,65,37,29.20,29.09,6,1,6,0.05
2013-12-28,45.0,38.2,31.1,40.7,32.8,25.8,98,82,52,29.14,28.73,11,2,11,0.78
2013-12-29,52.2,43.8,36.7,45.5,41.7,36.2,98,93,75,28.85,28.64,8,1,8,0.12
2013-12-30,51.4,43.1,36.0,44.5,40.1,35.5,98,90,71,29.00,28.82,6,0,6,0.00
2013-12-31,44.6,37.6,30.2,38.5,28.9,21.4,96,73,42,29.17,28.97,8,1,8,0.00
2014-1-1,50.0,38.9,28.4,36.0,30.4,25.4,92,73,49,29.12,28.88,5,0,5,0.00
2014-1-2,51.4,40.8,23.9,50.9,36.7,9.1,98,86,53,28.91,28.58,15,2,15,51.44